sensor_id;sensor_type;location;lat;lon;timestamp;pressure;altitude;pressure_sealevel;temperature;humidity
13709;BME280;54933;51.908;7.730;2023-01-27T00:01:55;101693.34;;;21.54;59.32
13709;BME280;54933;51.908;7.730;2023-01-27T00:04:20;101691.69;;;21.53;59.49
13709;BME280;54933;51.908;7.730;2023-01-27T00:06:45;101701.44;;;21.54;59.29
13709;BME280;54933;51.908;7.730;2023-01-27T00:09:11;101706.00;;;21.54;59.45
13709;BME280;54933;51.908;7.730;2023-01-27T00:11:36;101711.63;;;21.52;59.32
13709;BME280;54933;51.908;7.730;2023-01-27T00:14:20;101713.31;;;21.53;59.25
13709;BME280;54933;51.908;7.730;2023-01-27T00:16:45;101715.19;;;21.53;59.29
13709;BME280;54933;51.908;7.730;2023-01-27T00:19:10;101714.31;;;21.52;59.50
13709;BME280;54933;51.908;7.730;2023-01-27T00:21:35;101718.91;;;21.52;59.30
13709;BME280;54933;51.908;7.730;2023-01-27T00:24:19;101730.56;;;21.52;59.19
13709;BME280;54933;51.908;7.730;2023-01-27T00:27:00;101724.31;;;21.52;59.33
13709;BME280;54933;51.908;7.730;2023-01-27T00:29:26;101723.50;;;21.51;59.34
13709;BME280;54933;51.908;7.730;2023-01-27T00:31:51;101720.78;;;21.51;59.12
13709;BME280;54933;51.908;7.730;2023-01-27T00:34:35;101723.50;;;21.51;59.40
13709;BME280;54933;51.908;7.730;2023-01-27T00:37:00;101717.22;;;21.51;59.61
13709;BME280;54933;51.908;7.730;2023-01-27T00:39:25;101722.63;;;21.51;59.40
13709;BME280;54933;51.908;7.730;2023-01-27T00:41:50;101716.38;;;21.50;59.39
13709;BME280;54933;51.908;7.730;2023-01-27T00:44:16;101719.09;;;21.50;59.36
13709;BME280;54933;51.908;7.730;2023-01-27T00:46:41;101719.09;;;21.50;59.18
13709;BME280;54933;51.908;7.730;2023-01-27T00:49:07;101713.69;;;21.50;59.31
13709;BME280;54933;51.908;7.730;2023-01-27T00:51:33;101720.97;;;21.50;59.21
13709;BME280;54933;51.908;7.730;2023-01-27T00:54:00;101709.31;;;21.49;59.05
13709;BME280;54933;51.908;7.730;2023-01-27T00:56:27;101716.38;;;21.50;59.33
13709;BME280;54933;51.908;7.730;2023-01-27T00:58:52;101723.50;;;21.51;59.23
13709;BME280;54933;51.908;7.730;2023-01-27T01:01:17;101714.72;;;21.49;59.14
13709;BME280;54933;51.908;7.730;2023-01-27T01:03:43;101710.16;;;21.50;59.43
13709;BME280;54933;51.908;7.730;2023-01-27T01:06:12;101707.47;;;21.50;59.16
13709;BME280;54933;51.908;7.730;2023-01-27T01:08:37;101717.44;;;21.49;59.36
13709;BME280;54933;51.908;7.730;2023-01-27T01:11:04;101709.31;;;21.49;59.25
13709;BME280;54933;51.908;7.730;2023-01-27T01:13:29;101720.13;;;21.49;59.21
13709;BME280;54933;51.908;7.730;2023-01-27T01:15:55;101712.22;;;21.48;59.02
13709;BME280;54933;51.908;7.730;2023-01-27T01:18:22;101718.47;;;21.48;59.26
13709;BME280;54933;51.908;7.730;2023-01-27T01:20:47;101713.06;;;21.48;59.16
13709;BME280;54933;51.908;7.730;2023-01-27T01:23:14;101718.47;;;21.48;59.31
13709;BME280;54933;51.908;7.730;2023-01-27T01:25:39;101724.69;;;21.49;59.35
13709;BME280;54933;51.908;7.730;2023-01-27T01:28:06;101734.69;;;21.48;59.07
13709;BME280;54933;51.908;7.730;2023-01-27T01:30:34;101723.03;;;21.48;59.39
13709;BME280;54933;51.908;7.730;2023-01-27T01:32:59;101725.75;;;21.48;59.24
13709;BME280;54933;51.908;7.730;2023-01-27T01:35:25;101727.59;;;21.47;59.21
13709;BME280;54933;51.908;7.730;2023-01-27T01:37:51;101727.59;;;21.47;59.55
13709;BME280;54933;51.908;7.730;2023-01-27T01:40:17;101724.91;;;21.47;59.46
13709;BME280;54933;51.908;7.730;2023-01-27T01:48:06;101735.06;;;21.45;59.48
13709;BME280;54933;51.908;7.730;2023-01-27T01:50:32;101734.91;;;21.47;59.33
13709;BME280;54933;51.908;7.730;2023-01-27T01:53:00;101736.75;;;21.46;59.41
13709;BME280;54933;51.908;7.730;2023-01-27T01:55:27;101735.91;;;21.46;59.33
13709;BME280;54933;51.908;7.730;2023-01-27T01:57:53;101742.16;;;21.46;59.25
13709;BME280;54933;51.908;7.730;2023-01-27T02:00:19;101736.75;;;21.46;59.31
13709;BME280;54933;51.908;7.730;2023-01-27T02:02:45;101739.47;;;21.46;59.29
13709;BME280;54933;51.908;7.730;2023-01-27T02:05:26;101735.72;;;21.47;59.33
13709;BME280;54933;51.908;7.730;2023-01-27T02:07:56;101740.47;;;21.45;59.44
13709;BME280;54933;51.908;7.730;2023-01-27T02:10:23;101735.91;;;21.46;59.19
13709;BME280;54933;51.908;7.730;2023-01-27T02:12:49;101729.84;;;21.44;59.37
13709;BME280;54933;51.908;7.730;2023-01-27T02:15:14;101726.97;;;21.45;59.57
13709;BME280;54933;51.908;7.730;2023-01-27T02:17:40;101725.28;;;21.44;59.61
13709;BME280;54933;51.908;7.730;2023-01-27T02:20:24;101728.00;;;21.44;59.41
13709;BME280;54933;51.908;7.730;2023-01-27T02:22:56;101732.38;;;21.45;59.51
13709;BME280;54933;51.908;7.730;2023-01-27T02:25:27;101728.00;;;21.44;59.25
13709;BME280;54933;51.908;7.730;2023-01-27T02:27:54;101730.72;;;21.44;59.48
13709;BME280;54933;51.908;7.730;2023-01-27T02:30:20;101726.34;;;21.43;59.36
13709;BME280;54933;51.908;7.730;2023-01-27T02:32:45;101725.28;;;21.44;59.28
13709;BME280;54933;51.908;7.730;2023-01-27T02:35:14;101727.16;;;21.44;59.35
13709;BME280;54933;51.908;7.730;2023-01-27T02:37:42;101733.41;;;21.44;59.31
13709;BME280;54933;51.908;7.730;2023-01-27T02:40:08;101732.56;;;21.44;59.45
13709;BME280;54933;51.908;7.730;2023-01-27T02:42:34;101717.19;;;21.44;59.39
13709;BME280;54933;51.908;7.730;2023-01-27T02:45:00;101720.94;;;21.43;59.16
13709;BME280;54933;51.908;7.730;2023-01-27T02:47:25;101708.44;;;21.42;59.23
13709;BME280;54933;51.908;7.730;2023-01-27T02:49:50;101714.69;;;21.43;59.50
13709;BME280;54933;51.908;7.730;2023-01-27T02:52:16;101717.38;;;21.43;59.43
13709;BME280;54933;51.908;7.730;2023-01-27T02:54:41;101723.63;;;21.43;59.47
13709;BME280;54933;51.908;7.730;2023-01-27T02:57:06;101717.38;;;21.43;59.32
13709;BME280;54933;51.908;7.730;2023-01-27T02:59:31;101718.44;;;21.42;59.02
13709;BME280;54933;51.908;7.730;2023-01-27T03:01:57;101724.66;;;21.42;59.26
13709;BME280;54933;51.908;7.730;2023-01-27T03:04:22;101724.66;;;21.42;59.41
13709;BME280;54933;51.908;7.730;2023-01-27T03:06:47;101718.44;;;21.42;59.36
13709;BME280;54933;51.908;7.730;2023-01-27T03:09:12;101721.13;;;21.42;59.43
13709;BME280;54933;51.908;7.730;2023-01-27T03:11:38;101724.66;;;21.42;59.33
13709;BME280;54933;51.908;7.730;2023-01-27T03:14:22;101730.06;;;21.42;59.10
13709;BME280;54933;51.908;7.730;2023-01-27T03:17:06;101722.13;;;21.41;59.47
13709;BME280;54933;51.908;7.730;2023-01-27T03:19:49;101721.34;;;21.40;59.17
13709;BME280;54933;51.908;7.730;2023-01-27T03:22:17;101719.44;;;21.41;59.25
13709;BME280;54933;51.908;7.730;2023-01-27T03:24:42;101721.34;;;21.40;59.58
13709;BME280;54933;51.908;7.730;2023-01-27T03:27:07;101732.97;;;21.41;59.20
13709;BME280;54933;51.908;7.730;2023-01-27T03:29:33;101721.34;;;21.40;59.36
13709;BME280;54933;51.908;7.730;2023-01-27T03:32:17;101726.75;;;21.40;59.55
13709;BME280;54933;51.908;7.730;2023-01-27T03:34:42;101725.88;;;21.40;59.34
13709;BME280;54933;51.908;7.730;2023-01-27T03:37:07;101723.19;;;21.40;59.55
13709;BME280;54933;51.908;7.730;2023-01-27T03:39:51;101720.47;;;21.40;59.15
13709;BME280;54933;51.908;7.730;2023-01-27T03:42:35;101725.03;;;21.39;59.45
13709;BME280;54933;51.908;7.730;2023-01-27T03:45:19;101717.97;;;21.38;59.52
13709;BME280;54933;51.908;7.730;2023-01-27T03:48:03;101728.78;;;21.38;59.44
13709;BME280;54933;51.908;7.730;2023-01-27T03:50:29;101720.69;;;21.38;59.12
13709;BME280;54933;51.908;7.730;2023-01-27T03:53:07;101726.09;;;21.38;59.17
13709;BME280;54933;51.908;7.730;2023-01-27T03:55:35;101731.50;;;21.38;59.36
13709;BME280;54933;51.908;7.730;2023-01-27T03:58:00;101728.78;;;21.38;59.39
13709;BME280;54933;51.908;7.730;2023-01-27T04:00:38;101739.59;;;21.38;59.27
13709;BME280;54933;51.908;7.730;2023-01-27T04:03:04;101742.31;;;21.38;59.50
13709;BME280;54933;51.908;7.730;2023-01-27T04:05:47;101739.59;;;21.38;59.05
13709;BME280;54933;51.908;7.730;2023-01-27T04:08:31;101738.75;;;21.38;59.36
13709;BME280;54933;51.908;7.730;2023-01-27T04:11:03;101736.06;;;21.38;59.44
13709;BME280;54933;51.908;7.730;2023-01-27T04:13:47;101730.66;;;21.38;59.42
13709;BME280;54933;51.908;7.730;2023-01-27T04:16:13;101741.47;;;21.38;59.17
13709;BME280;54933;51.908;7.730;2023-01-27T04:18:39;101741.47;;;21.38;59.22
13709;BME280;54933;51.908;7.730;2023-01-27T04:21:04;101749.56;;;21.38;59.30
13709;BME280;54933;51.908;7.730;2023-01-27T04:23:30;101741.47;;;21.38;59.44
13709;BME280;54933;51.908;7.730;2023-01-27T04:25:55;101742.31;;;21.38;59.41
13709;BME280;54933;51.908;7.730;2023-01-27T04:28:21;101734.41;;;21.37;59.27
13709;BME280;54933;51.908;7.730;2023-01-27T04:30:46;101743.31;;;21.37;59.39
13709;BME280;54933;51.908;7.730;2023-01-27T04:33:12;101740.63;;;21.37;59.42
13709;BME280;54933;51.908;7.730;2023-01-27T04:35:42;101733.56;;;21.36;59.45
13709;BME280;54933;51.908;7.730;2023-01-27T04:38:09;101740.63;;;21.37;59.38
13709;BME280;54933;51.908;7.730;2023-01-27T04:40:34;101747.91;;;21.37;59.45
13709;BME280;54933;51.908;7.730;2023-01-27T04:42:59;101755.00;;;21.38;59.36
13709;BME280;54933;51.908;7.730;2023-01-27T04:45:25;101749.56;;;21.38;59.50
13709;BME280;54933;51.908;7.730;2023-01-27T04:47:50;101747.06;;;21.36;59.17
13709;BME280;54933;51.908;7.730;2023-01-27T04:50:15;101749.78;;;21.36;59.19
13709;BME280;54933;51.908;7.730;2023-01-27T04:52:41;101753.31;;;21.37;59.17
13709;BME280;54933;51.908;7.730;2023-01-27T04:55:06;101762.25;;;21.37;59.46
13709;BME280;54933;51.908;7.730;2023-01-27T04:57:31;101764.97;;;21.37;59.16
13709;BME280;54933;51.908;7.730;2023-01-27T04:59:57;101762.25;;;21.37;59.28
13709;BME280;54933;51.908;7.730;2023-01-27T05:02:22;101762.25;;;21.37;59.20
13709;BME280;54933;51.908;7.730;2023-01-27T05:04:49;101767.84;;;21.36;59.49
13709;BME280;54933;51.908;7.730;2023-01-27T05:07:14;101763.28;;;21.36;59.44
13709;BME280;54933;51.908;7.730;2023-01-27T05:09:39;101769.53;;;21.37;59.33
13709;BME280;54933;51.908;7.730;2023-01-27T05:12:04;101773.25;;;21.36;59.22
13709;BME280;54933;51.908;7.730;2023-01-27T05:14:30;101771.41;;;21.36;59.45
13709;BME280;54933;51.908;7.730;2023-01-27T05:16:55;101766.66;;;21.38;59.53
13709;BME280;54933;51.908;7.730;2023-01-27T05:19:20;101769.16;;;21.40;59.48
13709;BME280;54933;51.908;7.730;2023-01-27T05:21:45;101774.38;;;21.41;59.48
13709;BME280;54933;51.908;7.730;2023-01-27T05:24:11;101770.81;;;21.41;59.44
13709;BME280;54933;51.908;7.730;2023-01-27T05:26:36;101771.66;;;21.41;59.58
13709;BME280;54933;51.908;7.730;2023-01-27T05:29:01;101780.81;;;21.40;59.66
13709;BME280;54933;51.908;7.730;2023-01-27T05:31:29;101779.13;;;21.39;59.65
13709;BME280;54933;51.908;7.730;2023-01-27T05:33:58;101773.72;;;21.39;59.42
13709;BME280;54933;51.908;7.730;2023-01-27T05:36:24;101770.16;;;21.39;59.60
13709;BME280;54933;51.908;7.730;2023-01-27T05:38:50;101773.72;;;21.39;59.71
13709;BME280;54933;51.908;7.730;2023-01-27T05:41:16;101779.13;;;21.39;59.56
13709;BME280;54933;51.908;7.730;2023-01-27T05:43:43;101778.28;;;21.39;60.14
13709;BME280;54933;51.908;7.730;2023-01-27T05:46:12;101779.13;;;21.39;59.92
13709;BME280;54933;51.908;7.730;2023-01-27T05:48:42;101783.53;;;21.40;59.87
13709;BME280;54933;51.908;7.730;2023-01-27T05:51:08;101789.94;;;21.39;59.99
13709;BME280;54933;51.908;7.730;2023-01-27T05:53:34;101793.50;;;21.40;59.98
13709;BME280;54933;51.908;7.730;2023-01-27T05:56:02;101795.34;;;21.39;60.30
13709;BME280;54933;51.908;7.730;2023-01-27T05:58:27;101796.38;;;21.38;59.81
13709;BME280;54933;51.908;7.730;2023-01-27T06:00:53;101786.59;;;21.37;59.66
13709;BME280;54933;51.908;7.730;2023-01-27T06:03:18;101799.09;;;21.38;59.75
13709;BME280;54933;51.908;7.730;2023-01-27T06:05:54;101797.41;;;21.37;59.63
13709;BME280;54933;51.908;7.730;2023-01-27T06:08:23;101800.94;;;21.38;59.94
13709;BME280;54933;51.908;7.730;2023-01-27T06:10:50;101805.50;;;21.37;60.31
13709;BME280;54933;51.908;7.730;2023-01-27T06:13:15;101805.72;;;21.36;60.53
13709;BME280;54933;51.908;7.730;2023-01-27T06:15:42;101803.84;;;21.36;60.38
13709;BME280;54933;51.908;7.730;2023-01-27T06:18:08;101806.56;;;21.36;60.42
13709;BME280;54933;51.908;7.730;2023-01-27T06:20:33;101785.59;;;20.17;57.65
13709;BME280;54933;51.908;7.730;2023-01-27T06:22:58;101794.69;;;20.45;54.96
13709;BME280;54933;51.908;7.730;2023-01-27T06:25:25;101807.63;;;20.85;54.60
13709;BME280;54933;51.908;7.730;2023-01-27T06:27:54;101806.81;;;20.99;55.01
13709;BME280;54933;51.908;7.730;2023-01-27T06:30:20;101808.34;;;21.08;55.79
13709;BME280;54933;51.908;7.730;2023-01-27T06:32:45;101811.31;;;21.13;56.24
13709;BME280;54933;51.908;7.730;2023-01-27T06:35:10;101805.53;;;21.16;56.82
13709;BME280;54933;51.908;7.730;2023-01-27T06:37:36;101800.97;;;21.17;56.98
13709;BME280;54933;51.908;7.730;2023-01-27T06:40:02;101803.47;;;21.18;56.97
13709;BME280;54933;51.908;7.730;2023-01-27T06:42:27;101811.38;;;21.20;57.10
13709;BME280;54933;51.908;7.730;2023-01-27T06:44:53;101813.06;;;21.21;57.24
13709;BME280;54933;51.908;7.730;2023-01-27T06:47:18;101808.47;;;21.21;57.49
13709;BME280;54933;51.908;7.730;2023-01-27T06:49:44;101821.00;;;21.22;57.57
13709;BME280;54933;51.908;7.730;2023-01-27T06:52:09;101824.31;;;21.24;57.94
13709;BME280;54933;51.908;7.730;2023-01-27T06:54:34;101819.75;;;21.25;58.19
13709;BME280;54933;51.908;7.730;2023-01-27T06:56:59;101826.81;;;21.26;58.31
13709;BME280;54933;51.908;7.730;2023-01-27T06:59:24;101821.41;;;21.26;58.52
13709;BME280;54933;51.908;7.730;2023-01-27T07:01:50;101827.66;;;21.26;58.93
13709;BME280;54933;51.908;7.730;2023-01-27T07:04:15;101826.00;;;21.25;58.91
13709;BME280;54933;51.908;7.730;2023-01-27T07:06:40;101830.38;;;21.26;59.29
13709;BME280;54933;51.908;7.730;2023-01-27T07:09:06;101831.41;;;21.25;59.28
13709;BME280;54933;51.908;7.730;2023-01-27T07:11:31;101841.19;;;21.26;59.24
13709;BME280;54933;51.908;7.730;2023-01-27T07:13:56;101848.63;;;21.24;59.22
13709;BME280;54933;51.908;7.730;2023-01-27T07:16:21;101850.34;;;21.25;59.34
13709;BME280;54933;51.908;7.730;2023-01-27T07:18:47;101853.03;;;21.25;59.31
13709;BME280;54933;51.908;7.730;2023-01-27T07:21:12;101847.63;;;21.25;59.75
13709;BME280;54933;51.908;7.730;2023-01-27T07:23:37;101853.03;;;21.25;59.55
13709;BME280;54933;51.908;7.730;2023-01-27T07:26:03;101853.84;;;21.26;59.67
13709;BME280;54933;51.908;7.730;2023-01-27T07:28:28;101857.59;;;21.25;59.69
13709;BME280;54933;51.908;7.730;2023-01-27T07:30:53;101855.75;;;21.25;59.80
13709;BME280;54933;51.908;7.730;2023-01-27T07:33:19;101866.56;;;21.25;59.68
13709;BME280;54933;51.908;7.730;2023-01-27T07:35:47;101866.34;;;21.27;59.82
13709;BME280;54933;51.908;7.730;2023-01-27T07:38:13;101860.09;;;21.26;59.78
13709;BME280;54933;51.908;7.730;2023-01-27T07:40:39;101870.06;;;21.26;59.89
13709;BME280;54933;51.908;7.730;2023-01-27T07:43:04;101863.66;;;21.27;59.79
13709;BME280;54933;51.908;7.730;2023-01-27T07:45:30;101861.78;;;21.27;59.96
13709;BME280;54933;51.908;7.730;2023-01-27T07:48:02;101864.50;;;21.27;59.96
13709;BME280;54933;51.908;7.730;2023-01-27T07:50:28;101865.31;;;21.28;59.75
13709;BME280;54933;51.908;7.730;2023-01-27T07:52:53;101865.31;;;21.28;59.81
13709;BME280;54933;51.908;7.730;2023-01-27T07:55:19;101873.44;;;21.28;59.90
13709;BME280;54933;51.908;7.730;2023-01-27T07:57:44;101879.69;;;21.28;60.16
13709;BME280;54933;51.908;7.730;2023-01-27T08:00:10;101885.09;;;21.28;60.01
13709;BME280;54933;51.908;7.730;2023-01-27T08:02:39;101885.09;;;21.28;59.78
13709;BME280;54933;51.908;7.730;2023-01-27T08:05:05;101891.34;;;21.29;60.11
13709;BME280;54933;51.908;7.730;2023-01-27T08:07:31;101895.91;;;21.28;60.21
13709;BME280;54933;51.908;7.730;2023-01-27T08:09:56;101897.56;;;21.29;59.92
13709;BME280;54933;51.908;7.730;2023-01-27T08:12:21;101901.31;;;21.28;60.17
13709;BME280;54933;51.908;7.730;2023-01-27T08:14:46;101901.31;;;21.28;60.08
13709;BME280;54933;51.908;7.730;2023-01-27T08:17:12;101895.91;;;21.28;60.11
13709;BME280;54933;51.908;7.730;2023-01-27T08:19:37;101907.56;;;21.29;59.99
13709;BME280;54933;51.908;7.730;2023-01-27T08:22:02;101906.72;;;21.28;60.08
13709;BME280;54933;51.908;7.730;2023-01-27T08:24:28;101909.41;;;21.28;60.00
13709;BME280;54933;51.908;7.730;2023-01-27T08:26:53;101904.88;;;21.29;59.99
13709;BME280;54933;51.908;7.730;2023-01-27T08:29:18;101906.53;;;21.30;60.00
13709;BME280;54933;51.908;7.730;2023-01-27T08:31:44;101897.56;;;21.29;59.85
13709;BME280;54933;51.908;7.730;2023-01-27T08:34:09;101908.38;;;21.29;59.83
13709;BME280;54933;51.908;7.730;2023-01-27T08:36:34;101895.91;;;21.28;59.90
13709;BME280;54933;51.908;7.730;2023-01-27T08:39:00;101899.25;;;21.30;59.89
13709;BME280;54933;51.908;7.730;2023-01-27T08:41:25;101899.44;;;21.29;59.94
13709;BME280;54933;51.908;7.730;2023-01-27T08:43:53;101909.22;;;21.30;60.04
13709;BME280;54933;51.908;7.730;2023-01-27T08:46:18;101909.22;;;21.30;59.98
13709;BME280;54933;51.908;7.730;2023-01-27T08:48:43;101913.78;;;21.29;59.88
13709;BME280;54933;51.908;7.730;2023-01-27T08:51:11;101912.78;;;21.30;59.97
13709;BME280;54933;51.908;7.730;2023-01-27T08:53:37;101912.78;;;21.30;59.71
13709;BME280;54933;51.908;7.730;2023-01-27T08:56:06;101921.69;;;21.31;59.82
13709;BME280;54933;51.908;7.730;2023-01-27T08:58:31;101923.59;;;21.30;59.86
13709;BME280;54933;51.908;7.730;2023-01-27T09:01:01;101922.56;;;21.31;59.87
13709;BME280;54933;51.908;7.730;2023-01-27T09:03:31;101930.66;;;21.31;59.75
13709;BME280;54933;51.908;7.730;2023-01-27T09:05:57;101933.38;;;21.31;59.82
13709;BME280;54933;51.908;7.730;2023-01-27T09:08:24;101930.66;;;21.31;59.91
13709;BME280;54933;51.908;7.730;2023-01-27T09:10:49;101940.44;;;21.32;59.77
13709;BME280;54933;51.908;7.730;2023-01-27T09:13:15;101938.78;;;21.31;59.68
13709;BME280;54933;51.908;7.730;2023-01-27T09:15:41;101941.47;;;21.31;59.66
13709;BME280;54933;51.908;7.730;2023-01-27T09:18:08;101952.09;;;21.33;59.65
13709;BME280;54933;51.908;7.730;2023-01-27T09:20:33;101944.84;;;21.33;59.76
13709;BME280;54933;51.908;7.730;2023-01-27T09:23:01;101945.84;;;21.32;59.66
13709;BME280;54933;51.908;7.730;2023-01-27T09:25:26;101952.09;;;21.33;59.80
13709;BME280;54933;51.908;7.730;2023-01-27T09:27:56;101956.50;;;21.34;59.55
13709;BME280;54933;51.908;7.730;2023-01-27T09:30:22;101957.50;;;21.33;59.73
13709;BME280;54933;51.908;7.730;2023-01-27T09:32:48;101957.50;;;21.33;59.54
13709;BME280;54933;51.908;7.730;2023-01-27T09:35:13;101953.78;;;21.34;59.57
13709;BME280;54933;51.908;7.730;2023-01-27T09:37:46;101955.66;;;21.33;59.66
13709;BME280;54933;51.908;7.730;2023-01-27T09:43:56;101958.34;;;21.33;59.58
13709;BME280;54933;51.908;7.730;2023-01-27T09:46:49;101952.94;;;21.33;59.87
13709;BME280;54933;51.908;7.730;2023-01-27T09:50:00;101960.22;;;21.33;60.04
13709;BME280;54933;51.908;7.730;2023-01-27T09:52:48;101961.06;;;21.33;59.55
13709;BME280;54933;51.908;7.730;2023-01-27T09:55:18;101961.91;;;21.34;59.53
13709;BME280;54933;51.908;7.730;2023-01-27T09:57:54;101969.16;;;21.33;59.47
13709;BME280;54933;51.908;7.730;2023-01-27T10:00:37;101970.84;;;21.34;59.57
13709;BME280;54933;51.908;7.730;2023-01-27T10:03:30;101973.53;;;21.34;59.45
13709;BME280;54933;51.908;7.730;2023-01-27T10:09:08;101962.72;;;21.34;59.48
13709;BME280;54933;51.908;7.730;2023-01-27T10:11:50;101960.88;;;21.35;59.74
13709;BME280;54933;51.908;7.730;2023-01-27T10:14:30;101963.38;;;21.36;59.56
13709;BME280;54933;51.908;7.730;2023-01-27T10:17:15;101963.38;;;21.36;59.40
13709;BME280;54933;51.908;7.730;2023-01-27T10:27:36;101973.16;;;21.37;59.63
13709;BME280;54933;51.908;7.730;2023-01-27T10:30:27;101965.03;;;21.37;59.66
13709;BME280;54933;51.908;7.730;2023-01-27T10:33:15;101980.44;;;21.37;59.60
13709;BME280;54933;51.908;7.730;2023-01-27T10:38:21;101976.69;;;21.38;59.57
13709;BME280;54933;51.908;7.730;2023-01-27T10:41:02;101982.09;;;21.38;59.68
13709;BME280;54933;51.908;7.730;2023-01-27T10:43:52;101978.38;;;21.39;59.61
13709;BME280;54933;51.908;7.730;2023-01-27T10:46:39;101980.25;;;21.38;59.70
13709;BME280;54933;51.908;7.730;2023-01-27T10:49:16;101964.69;;;21.40;59.35
13709;BME280;54933;51.908;7.730;2023-01-27T10:52:03;101968.00;;;21.42;59.71
13709;BME280;54933;51.908;7.730;2023-01-27T10:54:37;101973.41;;;21.42;59.64
13709;BME280;54933;51.908;7.730;2023-01-27T10:57:10;101973.41;;;21.42;59.84
13709;BME280;54933;51.908;7.730;2023-01-27T11:05:06;101975.13;;;21.43;59.83
13709;BME280;54933;51.908;7.730;2023-01-27T11:07:43;101969.72;;;21.43;60.09
13709;BME280;54933;51.908;7.730;2023-01-27T11:10:16;101968.00;;;21.42;59.93
13709;BME280;54933;51.908;7.730;2023-01-27T11:12:46;101969.72;;;21.43;59.97
13709;BME280;54933;51.908;7.730;2023-01-27T11:15:25;101970.53;;;21.44;59.93
13709;BME280;54933;51.908;7.730;2023-01-27T11:17:56;101968.66;;;21.44;59.96
13709;BME280;54933;51.908;7.730;2023-01-27T11:20:28;101966.81;;;21.45;60.11
13709;BME280;54933;51.908;7.730;2023-01-27T11:23:16;101967.63;;;21.45;60.05
13709;BME280;54933;51.908;7.730;2023-01-27T11:25:46;101969.31;;;21.46;60.17
13709;BME280;54933;51.908;7.730;2023-01-27T11:31:12;101972.03;;;21.46;60.09
13709;BME280;54933;51.908;7.730;2023-01-27T11:33:53;101963.91;;;21.46;60.32
13709;BME280;54933;51.908;7.730;2023-01-27T11:36:24;101974.72;;;21.46;60.13
13709;BME280;54933;51.908;7.730;2023-01-27T11:38:49;101962.06;;;21.47;60.41
13709;BME280;54933;51.908;7.730;2023-01-27T11:41:14;101963.91;;;21.46;60.71
13709;BME280;54933;51.908;7.730;2023-01-27T11:43:40;101967.28;;;21.48;60.38
13709;BME280;54933;51.908;7.730;2023-01-27T11:46:12;101957.28;;;21.49;60.68
13709;BME280;54933;51.908;7.730;2023-01-27T11:48:42;101958.31;;;21.48;60.41
13709;BME280;54933;51.908;7.730;2023-01-27T11:51:17;101961.00;;;21.48;60.62
13709;BME280;54933;51.908;7.730;2023-01-27T11:53:47;101967.28;;;21.48;60.55
13709;BME280;54933;51.908;7.730;2023-01-27T11:56:17;101963.53;;;21.49;60.76
13709;BME280;54933;51.908;7.730;2023-01-27T11:59:08;101960.81;;;21.49;60.67
13709;BME280;54933;51.908;7.730;2023-01-27T12:07:19;101958.13;;;21.49;60.84
13709;BME280;54933;51.908;7.730;2023-01-27T12:09:49;101949.16;;;21.49;60.89
13709;BME280;54933;51.908;7.730;2023-01-27T12:12:22;101948.34;;;21.48;60.71
13709;BME280;54933;51.908;7.730;2023-01-27T12:14:52;101950.84;;;21.50;60.79
13709;BME280;54933;51.908;7.730;2023-01-27T12:17:29;101947.31;;;21.49;60.60
13709;BME280;54933;51.908;7.730;2023-01-27T12:19:59;101951.84;;;21.49;60.78
13709;BME280;54933;51.908;7.730;2023-01-27T12:22:27;101947.31;;;21.49;61.07
13709;BME280;54933;51.908;7.730;2023-01-27T12:24:58;101944.59;;;21.49;60.91
13709;BME280;54933;51.908;7.730;2023-01-27T12:27:26;101941.03;;;21.49;60.58
13709;BME280;54933;51.908;7.730;2023-01-27T12:29:54;101947.31;;;21.49;60.80
13709;BME280;54933;51.908;7.730;2023-01-27T12:32:27;101954.38;;;21.50;60.79
13709;BME280;54933;51.908;7.730;2023-01-27T12:34:58;101943.56;;;21.50;60.80
13709;BME280;54933;51.908;7.730;2023-01-27T12:37:29;101949.81;;;21.51;60.79
13709;BME280;54933;51.908;7.730;2023-01-27T12:40:00;101942.53;;;21.51;60.86
13709;BME280;54933;51.908;7.730;2023-01-27T12:42:41;101936.28;;;21.51;60.90
13709;BME280;54933;51.908;7.730;2023-01-27T12:45:23;101939.84;;;21.51;60.77
13709;BME280;54933;51.908;7.730;2023-01-27T12:48:00;101936.28;;;21.51;61.08
13709;BME280;54933;51.908;7.730;2023-01-27T12:50:31;101930.03;;;21.50;60.62
13709;BME280;54933;51.908;7.730;2023-01-27T12:53:04;101930.88;;;21.51;60.81
13709;BME280;54933;51.908;7.730;2023-01-27T12:55:35;101927.31;;;21.50;60.93
13709;BME280;54933;51.908;7.730;2023-01-27T12:58:03;101929.03;;;21.51;60.97
13709;BME280;54933;51.908;7.730;2023-01-27T13:00:29;101934.44;;;21.51;60.78
13709;BME280;54933;51.908;7.730;2023-01-27T13:03:13;101934.44;;;21.51;60.89
13709;BME280;54933;51.908;7.730;2023-01-27T13:05:39;101931.72;;;21.51;60.97
13709;BME280;54933;51.908;7.730;2023-01-27T13:08:12;101922.75;;;21.51;60.99
13709;BME280;54933;51.908;7.730;2023-01-27T13:10:38;101919.03;;;21.52;60.87
13709;BME280;54933;51.908;7.730;2023-01-27T13:13:04;101934.44;;;21.51;60.67
13709;BME280;54933;51.908;7.730;2023-01-27T13:15:30;101924.44;;;21.52;60.68
13709;BME280;54933;51.908;7.730;2023-01-27T13:17:59;101929.84;;;21.52;60.79
13709;BME280;54933;51.908;7.730;2023-01-27T13:20:44;101930.69;;;21.52;60.66
13709;BME280;54933;51.908;7.730;2023-01-27T13:26:21;101926.97;;;21.53;60.49
13709;BME280;54933;51.908;7.730;2023-01-27T13:29:00;101930.69;;;21.52;60.57
13709;BME280;54933;51.908;7.730;2023-01-27T13:32:05;101925.28;;;21.52;60.62
13709;BME280;54933;51.908;7.730;2023-01-27T13:37:34;101940.66;;;21.52;60.54
13709;BME280;54933;51.908;7.730;2023-01-27T13:40:09;101936.09;;;21.52;60.09
13709;BME280;54933;51.908;7.730;2023-01-27T13:42:52;101942.34;;;21.53;60.28
13709;BME280;54933;51.908;7.730;2023-01-27T13:46:20;101938.59;;;21.54;60.24